Cataratas International Airport
SBFI : now visible

Airfield :











YOU CAN JOIN US ON...

 
LOGIN :

Register | Disclaimer

   EN    FR    IT 

 









Legend :    VFR   Marginal VFR   IFR   Intensive IFR   Very Intensive IFR
Visi :
Ceiling :
>= 8 km
>= 3000ft
5 to 8 km
1000 to 3000 ft
1500m to 5 km
500 to 1000 ft
800 to 1500m
200 to 500 ft
< 800m
< 200 ft
Symbols :   Thunderstorms  Fog  Heavy snow  Heavy precipitations  Wind > 20 kt






- Airport Elevation : 786 ft
- IATA code : IGU


SBFI - Cataratas International

CURRENT METAR :
  • 070900Z 18004KT 9999 FEW011 17/17 Q1018

EXPIRED METARs :
  • 070800Z 18004KT 9999 BKN007 19/19 Q1018
  • 070700Z 16004KT 9999 BKN007 19/19 Q1018

TAF TAF SBFI
Valid from the 07 at 06:00 until the 08 at 06:00 UTC


070300Z 0706/0806 18007KT 9999 BKN020 TX26/0718Z TN14/0806Z
PROB40 0706/0710 BKN008
BECMG 0712/0714 18010KT CAVOK RMK PDJ



MET'MAP, your aeronautical weather chart ! - Copyright ORBIFLY December 2007 - Disclaimer

ORBIFLY MET'MAP TEAM :

Programming & Development : Alexandra Zaïnal
Concept & original design : Baudouin d'Aumeries
Assistance for programming : Marc-Olivier Méhu
Technical & hardware support : Manuel Goepfert

Contact : metmap@orbifly.com




SOURCES & CREDITS :

   NOAA       Earth
Advisory